createdAt,value
2023-04-21T00:00:35.024Z,100.00
2023-04-21T00:01:39.650Z,100.00
2023-04-21T00:02:44.079Z,100.00
2023-04-21T00:03:48.258Z,100.00
2023-04-21T00:04:52.256Z,100.00
2023-04-21T00:05:56.863Z,100.00
2023-04-21T00:07:00.830Z,100.00
2023-04-21T00:08:05.262Z,100.00
2023-04-21T00:09:09.795Z,100.00
2023-04-21T00:10:14.119Z,100.00
2023-04-21T00:11:18.696Z,100.00
2023-04-21T00:12:22.786Z,100.00
2023-04-21T00:13:27.111Z,100.00
2023-04-21T00:14:31.213Z,100.00
2023-04-21T00:15:35.581Z,100.00
2023-04-21T00:16:40.168Z,100.00
2023-04-21T00:17:44.490Z,100.00
2023-04-21T00:18:48.794Z,100.00
2023-04-21T00:19:53.375Z,100.00
2023-04-21T00:20:57.463Z,100.00
2023-04-21T00:22:01.833Z,100.00
2023-04-21T00:23:09.430Z,100.00
2023-04-21T00:24:08.288Z,100.00
2023-04-21T00:25:12.637Z,100.00
2023-04-21T00:26:17.221Z,100.00
2023-04-21T00:27:21.542Z,100.00
2023-04-21T00:28:25.944Z,100.00
2023-04-21T00:29:29.961Z,100.00
2023-04-21T00:30:30.613Z,100.00
2023-04-21T00:31:34.491Z,100.00
2023-04-21T00:32:39.105Z,100.00
2023-04-21T00:33:43.360Z,100.00
2023-04-21T00:34:47.707Z,100.00
2023-04-21T00:35:52.052Z,100.00
2023-04-21T00:36:56.123Z,100.00
2023-04-21T00:38:00.485Z,100.00
2023-04-21T00:39:04.829Z,100.00
2023-04-21T00:40:05.917Z,100.00
2023-04-21T00:41:13.209Z,100.00
2023-04-21T00:42:17.574Z,100.00
2023-04-21T00:43:22.127Z,100.00
2023-04-21T00:44:25.946Z,100.00
2023-04-21T00:45:30.315Z,100.00
2023-04-21T00:46:34.962Z,100.00
2023-04-21T00:47:39.014Z,100.00
2023-04-21T00:48:43.326Z,100.00
2023-04-21T00:49:47.652Z,100.00
2023-04-21T00:50:52.505Z,100.00
2023-04-21T00:51:56.571Z,100.00
2023-04-21T00:53:00.920Z,100.00
2023-04-21T00:54:04.995Z,100.00
2023-04-21T00:55:09.340Z,100.00
2023-04-21T00:56:13.698Z,100.00
2023-04-21T00:57:18.289Z,100.00
2023-04-21T00:58:22.356Z,100.00
2023-04-21T00:59:26.710Z,100.00
2023-04-21T01:00:32.940Z,100.00
2023-04-21T01:01:36.433Z,100.00
2023-04-21T01:02:40.877Z,100.00
2023-04-21T01:03:45.464Z,100.00
2023-04-21T01:04:49.659Z,100.00
2023-04-21T01:05:53.991Z,100.00
2023-04-21T01:06:58.057Z,100.00
2023-04-21T01:08:02.652Z,100.00
2023-04-21T01:09:07.247Z,100.00
2023-04-21T01:10:11.321Z,100.00
2023-04-21T01:11:15.390Z,100.00
2023-04-21T01:12:19.732Z,100.00
2023-04-21T01:13:24.635Z,100.00
2023-04-21T01:14:28.734Z,100.00
2023-04-21T01:15:33.052Z,100.00
2023-04-21T01:16:37.229Z,100.00
2023-04-21T01:17:41.816Z,100.00
2023-04-21T01:18:46.319Z,100.00
2023-04-21T01:19:50.392Z,100.00
2023-04-21T01:20:54.481Z,100.00
2023-04-21T01:21:58.817Z,100.00
2023-04-21T01:23:03.144Z,100.00
2023-04-21T01:24:07.736Z,100.00
2023-04-21T01:25:11.811Z,100.00
2023-04-21T01:26:16.672Z,100.00
2023-04-21T01:27:21.000Z,100.00
2023-04-21T01:28:25.071Z,100.00
2023-04-21T01:29:29.145Z,100.00
2023-04-21T01:30:35.010Z,100.00
2023-04-21T01:31:38.880Z,100.00
2023-04-21T01:32:43.254Z,100.00
2023-04-21T01:33:47.750Z,100.00
2023-04-21T01:34:52.102Z,100.00
2023-04-21T01:35:56.670Z,100.00
2023-04-21T01:37:01.014Z,100.00
2023-04-21T01:38:04.842Z,100.00
2023-04-21T01:39:09.176Z,100.00
2023-04-21T01:40:13.785Z,100.00
2023-04-21T01:41:18.107Z,100.00
2023-04-21T01:42:22.452Z,100.00
2023-04-21T01:43:26.884Z,100.00
2023-04-21T01:44:31.483Z,100.00
2023-04-21T01:45:35.687Z,100.00
2023-04-21T01:46:39.881Z,100.00
2023-04-21T01:47:43.981Z,100.00
2023-04-21T01:48:48.275Z,100.00
2023-04-21T01:49:52.608Z,100.00
2023-04-21T01:50:57.226Z,100.00
2023-04-21T01:52:01.588Z,100.00
2023-04-21T01:53:05.920Z,100.00
2023-04-21T01:54:10.257Z,100.00
2023-04-21T01:55:14.564Z,100.00
2023-04-21T01:56:18.644Z,100.00
2023-04-21T01:57:23.248Z,100.00
2023-04-21T01:58:27.586Z,100.00
2023-04-21T01:59:31.672Z,100.00
2023-04-21T02:00:37.276Z,100.00
2023-04-21T02:01:41.385Z,100.00
2023-04-21T02:02:46.153Z,100.00
2023-04-21T02:03:50.526Z,100.00
2023-04-21T02:04:54.655Z,100.00
2023-04-21T02:05:58.959Z,100.00
2023-04-21T02:07:03.082Z,100.00
2023-04-21T02:08:07.371Z,100.00
2023-04-21T02:09:11.702Z,100.00
2023-04-21T02:10:16.301Z,100.00
2023-04-21T02:11:20.645Z,100.00
2023-04-21T02:12:25.249Z,100.00
2023-04-21T02:13:29.048Z,100.00
2023-04-21T02:14:33.654Z,100.00
2023-04-21T02:15:38.009Z,100.00
2023-04-21T02:16:42.364Z,100.00
2023-04-21T02:17:46.424Z,100.00
2023-04-21T02:18:50.738Z,100.00
2023-04-21T02:19:55.365Z,100.00
2023-04-21T02:20:59.660Z,100.00
2023-04-21T02:22:04.008Z,100.00
2023-04-21T02:23:08.076Z,100.00
2023-04-21T02:24:12.686Z,100.00
2023-04-21T02:25:16.997Z,100.00
2023-04-21T02:26:21.077Z,100.00
2023-04-21T02:27:25.690Z,100.00
2023-04-21T02:28:30.013Z,100.00
2023-04-21T02:29:34.606Z,100.00
2023-04-21T02:30:41.424Z,100.00
2023-04-21T02:31:56.634Z,100.00
2023-04-21T02:32:48.188Z,100.00
2023-04-21T02:33:52.702Z,100.00
2023-04-21T02:34:57.068Z,100.00
2023-04-21T02:36:01.390Z,100.00
2023-04-21T02:37:05.487Z,100.00
2023-04-21T02:38:10.338Z,100.00
2023-04-21T02:39:14.432Z,100.00
2023-04-21T02:40:18.505Z,100.00
2023-04-21T02:41:22.848Z,100.00
2023-04-21T02:42:27.212Z,100.00
2023-04-21T02:43:31.516Z,100.00
2023-04-21T02:44:35.404Z,100.00
2023-04-21T02:45:37.268Z,100.00
2023-04-21T02:46:41.959Z,100.00
2023-04-21T02:47:45.982Z,100.00
2023-04-21T02:48:50.581Z,100.00
2023-04-21T02:49:55.120Z,100.00
2023-04-21T02:50:58.985Z,100.00
2023-04-21T02:52:03.293Z,100.00
2023-04-21T02:53:07.898Z,100.00
2023-04-21T02:54:12.208Z,100.00
2023-04-21T02:55:15.561Z,100.00
2023-04-21T02:56:20.903Z,100.00
2023-04-21T02:57:25.226Z,100.00
2023-04-21T02:58:29.567Z,100.00
2023-04-21T02:59:33.920Z,100.00
2023-04-21T03:00:38.092Z,100.00
2023-04-21T03:01:38.638Z,100.00
2023-04-21T03:02:42.944Z,100.00
2023-04-21T03:03:47.155Z,100.00
2023-04-21T03:04:51.400Z,100.00
2023-04-21T03:05:55.749Z,100.00
2023-04-21T03:07:00.208Z,100.00
2023-04-21T03:08:04.196Z,100.00
2023-04-21T03:09:08.769Z,100.00
2023-04-21T03:10:13.711Z,100.00
2023-04-21T03:11:17.273Z,100.00
2023-04-21T03:12:21.853Z,100.00
2023-04-21T03:13:25.939Z,100.00
2023-04-21T03:14:30.526Z,100.00
2023-04-21T03:15:34.606Z,100.00
2023-04-21T03:16:39.226Z,100.00
2023-04-21T03:17:43.582Z,100.00
2023-04-21T03:18:48.112Z,100.00
2023-04-21T03:19:52.205Z,100.00
2023-04-21T03:20:56.529Z,100.00
2023-04-21T03:22:00.616Z,100.00
2023-04-21T03:23:05.221Z,100.00
2023-04-21T03:24:09.344Z,100.00
2023-04-21T03:25:13.729Z,100.00
2023-04-21T03:26:18.310Z,100.00
2023-04-21T03:27:22.667Z,100.00
2023-04-21T03:28:27.212Z,100.00
2023-04-21T03:29:31.046Z,100.00
2023-04-21T03:30:35.690Z,100.00
2023-04-21T03:31:35.580Z,100.00
2023-04-21T03:32:39.987Z,100.00
2023-04-21T03:33:44.216Z,100.00
2023-04-21T03:34:48.586Z,100.00
2023-04-21T03:35:53.188Z,100.00
2023-04-21T03:36:57.514Z,100.00
2023-04-21T03:38:03.826Z,100.00
2023-04-21T03:39:19.202Z,100.00
2023-04-21T03:40:10.520Z,100.00
2023-04-21T03:41:14.852Z,100.00
2023-04-21T03:42:18.925Z,100.00
2023-04-21T03:43:23.269Z,100.00
2023-04-21T03:44:27.592Z,100.00
2023-04-21T03:45:32.194Z,100.00
2023-04-21T03:46:36.258Z,100.00
2023-04-21T03:47:40.902Z,100.00
2023-04-21T03:48:45.198Z,100.00
2023-04-21T03:49:46.052Z,100.00
2023-04-21T03:50:53.427Z,100.00
2023-04-21T03:51:57.499Z,100.00
2023-04-21T03:53:01.832Z,100.00
2023-04-21T03:54:06.446Z,100.00
2023-04-21T03:55:10.519Z,100.00
2023-04-21T03:56:14.832Z,100.00
2023-04-21T03:57:19.421Z,100.00
2023-04-21T03:58:23.768Z,100.00
2023-04-21T03:59:27.841Z,100.00
2023-04-21T04:00:32.177Z,100.00
2023-04-21T04:01:32.304Z,100.00
2023-04-21T04:02:36.723Z,100.00
2023-04-21T04:03:41.350Z,100.00
2023-04-21T04:04:45.584Z,100.00
2023-04-21T04:05:49.642Z,100.00
2023-04-21T04:06:54.249Z,100.00
2023-04-21T04:07:58.564Z,100.00
2023-04-21T04:09:03.179Z,100.00
2023-04-21T04:10:07.480Z,100.00
2023-04-21T04:11:11.807Z,100.00
2023-04-21T04:12:16.000Z,100.00
2023-04-21T04:13:20.082Z,100.00
2023-04-21T04:14:24.418Z,100.00
2023-04-21T04:15:28.758Z,100.00
2023-04-21T04:16:33.197Z,100.00
2023-04-21T04:17:37.991Z,100.00
2023-04-21T04:18:42.016Z,100.00
2023-04-21T04:19:46.093Z,100.00
2023-04-21T04:20:50.700Z,100.00
2023-04-21T04:21:55.032Z,100.00
2023-04-21T04:22:55.820Z,100.00
2023-04-21T04:24:03.189Z,100.00
2023-04-21T04:25:07.489Z,100.00
2023-04-21T04:26:11.573Z,100.00
2023-04-21T04:27:16.428Z,100.00
2023-04-21T04:28:20.505Z,100.00
2023-04-21T04:29:24.589Z,100.00
2023-04-21T04:30:29.182Z,100.00
2023-04-21T04:31:29.338Z,100.00
2023-04-21T04:32:33.650Z,100.00
2023-04-21T04:33:37.961Z,100.00
2023-04-21T04:34:42.294Z,100.00
2023-04-21T04:35:46.629Z,100.00
2023-04-21T04:36:50.952Z,100.00
2023-04-21T04:37:55.063Z,100.00
2023-04-21T04:38:59.644Z,100.00
2023-04-21T04:40:04.224Z,100.00
2023-04-21T04:41:08.294Z,100.00
2023-04-21T04:42:12.648Z,100.00
2023-04-21T04:43:16.994Z,100.00
2023-04-21T04:44:21.936Z,100.00
2023-04-21T04:45:25.700Z,100.00
2023-04-21T04:46:29.804Z,100.00
2023-04-21T04:47:34.406Z,100.00
2023-04-21T04:48:38.718Z,100.00
2023-04-21T04:49:43.042Z,100.00
2023-04-21T04:50:47.382Z,100.00
2023-04-21T04:51:51.450Z,100.00
2023-04-21T04:52:56.055Z,100.00
2023-04-21T04:54:00.133Z,100.00
2023-04-21T04:55:04.720Z,100.00
2023-04-21T04:56:09.045Z,100.00
2023-04-21T04:57:13.639Z,100.00
2023-04-21T04:58:18.337Z,100.00
2023-04-21T04:59:21.922Z,100.00
2023-04-21T05:00:26.233Z,100.00
2023-04-21T05:01:26.631Z,100.00
2023-04-21T05:02:31.114Z,100.00
2023-04-21T05:03:35.192Z,100.00
2023-04-21T05:04:39.826Z,100.00
2023-04-21T05:05:43.941Z,100.00
2023-04-21T05:06:48.026Z,100.00
2023-04-21T05:07:52.344Z,100.00
2023-04-21T05:08:56.938Z,100.00
2023-04-21T05:10:01.286Z,100.00
2023-04-21T05:11:05.346Z,100.00
2023-04-21T05:12:09.681Z,100.00
2023-04-21T05:13:14.042Z,100.00
2023-04-21T05:14:19.006Z,100.00
2023-04-21T05:15:22.348Z,100.00
2023-04-21T05:16:27.220Z,100.00
2023-04-21T05:17:31.819Z,100.00
2023-04-21T05:18:36.180Z,100.00
2023-04-21T05:19:40.284Z,100.00
2023-04-21T05:20:44.611Z,100.00
2023-04-21T05:21:49.219Z,100.00
2023-04-21T05:22:53.338Z,100.00
2023-04-21T05:23:57.721Z,100.00
2023-04-21T05:25:02.315Z,100.00
2023-04-21T05:26:06.684Z,100.00
2023-04-21T05:27:11.033Z,100.00
2023-04-21T05:28:15.139Z,100.00
2023-04-21T05:29:19.777Z,100.00
2023-04-21T05:30:24.140Z,100.00
2023-04-21T05:31:24.358Z,100.00
2023-04-21T05:32:28.560Z,100.00
2023-04-21T05:33:32.758Z,100.00
2023-04-21T05:34:37.387Z,96.37
2023-04-21T05:35:41.493Z,92.43
2023-04-21T05:36:45.830Z,85.94
2023-04-21T05:37:50.423Z,81.45
2023-04-21T05:38:54.745Z,78.83
2023-04-21T05:39:58.845Z,77.36
2023-04-21T05:41:03.181Z,73.30
2023-04-21T05:42:07.810Z,70.32
2023-04-21T05:43:12.171Z,70.82
2023-04-21T05:44:16.518Z,69.21
2023-04-21T05:45:20.831Z,67.46
2023-04-21T05:46:25.261Z,66.17
2023-04-21T05:47:29.799Z,65.83
2023-04-21T05:48:33.842Z,65.44
2023-04-21T05:49:38.188Z,65.59
2023-04-21T05:50:42.535Z,66.26
2023-04-21T05:51:46.632Z,65.08
2023-04-21T05:52:50.956Z,63.09
2023-04-21T05:53:55.307Z,62.38
2023-04-21T05:54:59.645Z,61.15
2023-04-21T05:56:04.497Z,60.58
2023-04-21T05:57:08.588Z,61.10
2023-04-21T05:58:12.665Z,60.82
2023-04-21T05:59:17.255Z,59.85
2023-04-21T06:00:21.605Z,59.56
2023-04-21T06:01:21.843Z,58.56
2023-04-21T06:02:26.031Z,58.64
2023-04-21T06:03:30.370Z,56.98
2023-04-21T06:04:35.115Z,56.59
2023-04-21T06:05:38.985Z,56.99
2023-04-21T06:06:43.267Z,56.32
2023-04-21T06:07:47.951Z,56.58
2023-04-21T06:08:52.229Z,56.00
2023-04-21T06:09:56.313Z,54.90
2023-04-21T06:11:00.654Z,55.20
2023-04-21T06:12:05.247Z,55.10
2023-04-21T06:13:09.590Z,56.13
2023-04-21T06:14:13.940Z,57.05
2023-04-21T06:15:18.300Z,56.46
2023-04-21T06:16:22.766Z,57.05
2023-04-21T06:17:27.316Z,57.00
2023-04-21T06:18:31.097Z,57.84
2023-04-21T06:19:35.673Z,58.91
2023-04-21T06:20:40.030Z,58.96
2023-04-21T06:21:44.344Z,58.73
2023-04-21T06:22:48.695Z,57.52
2023-04-21T06:23:53.044Z,57.66
2023-04-21T06:24:58.612Z,58.45
2023-04-21T06:26:01.981Z,58.49
2023-04-21T06:27:06.110Z,59.28
2023-04-21T06:28:10.168Z,60.17
2023-04-21T06:29:14.774Z,61.30
2023-04-21T06:30:19.136Z,61.83
2023-04-21T06:31:19.313Z,61.54
2023-04-21T06:32:23.647Z,61.24
2023-04-21T06:33:34.509Z,60.65
2023-04-21T06:34:32.322Z,60.82
2023-04-21T06:35:36.691Z,61.54
2023-04-21T06:36:41.276Z,61.61
2023-04-21T06:37:45.373Z,62.59
2023-04-21T06:38:49.699Z,63.09
2023-04-21T06:39:54.044Z,63.60
2023-04-21T06:40:58.165Z,62.69
2023-04-21T06:42:02.529Z,63.56
2023-04-21T06:43:06.835Z,63.25
2023-04-21T06:44:11.169Z,61.79
2023-04-21T06:45:15.823Z,60.00
2023-04-21T06:46:20.160Z,59.39
2023-04-21T06:47:24.758Z,58.32
2023-04-21T06:48:28.523Z,57.66
2023-04-21T06:49:32.872Z,55.22
2023-04-21T06:50:37.550Z,55.14
2023-04-21T06:51:41.895Z,54.12
2023-04-21T06:52:45.985Z,53.30
2023-04-21T06:53:50.576Z,53.35
2023-04-21T06:54:54.923Z,52.91
2023-04-21T06:55:59.275Z,51.82
2023-04-21T06:57:03.369Z,51.42
2023-04-21T06:58:07.730Z,50.01
2023-04-21T06:59:12.304Z,49.79
2023-04-21T07:00:16.388Z,49.30
2023-04-21T07:01:16.872Z,48.41
2023-04-21T07:02:23.934Z,47.23
2023-04-21T07:03:28.602Z,46.60
2023-04-21T07:04:27.198Z,46.56
2023-04-21T07:05:31.790Z,46.46
2023-04-21T07:06:36.101Z,46.13
2023-04-21T07:07:40.416Z,46.46
2023-04-21T07:08:44.779Z,46.15
2023-04-21T07:09:48.852Z,46.60
2023-04-21T07:10:53.857Z,46.73
2023-04-21T07:11:57.648Z,46.39
2023-04-21T07:13:02.013Z,46.67
2023-04-21T07:14:06.352Z,47.13
2023-04-21T07:15:10.688Z,45.47
2023-04-21T07:16:15.483Z,45.87
2023-04-21T07:17:19.647Z,45.62
2023-04-21T07:18:24.042Z,45.13
2023-04-21T07:19:29.125Z,45.95
2023-04-21T07:20:28.774Z,46.18
2023-04-21T07:21:32.931Z,45.72
2023-04-21T07:22:39.970Z,45.91
2023-04-21T07:23:39.103Z,45.70
2023-04-21T07:24:43.724Z,46.72
2023-04-21T07:25:47.813Z,47.44
2023-04-21T07:26:52.145Z,47.05
2023-04-21T07:27:56.764Z,46.65
2023-04-21T07:29:01.105Z,46.75
2023-04-21T07:30:05.696Z,46.89
2023-04-21T07:31:10.828Z,45.45
2023-04-21T07:32:15.166Z,45.36
2023-04-21T07:33:19.827Z,44.25
2023-04-21T07:34:23.661Z,43.36
2023-04-21T07:35:28.269Z,42.88
2023-04-21T07:36:32.611Z,42.57
2023-04-21T07:37:37.557Z,42.06
2023-04-21T07:38:41.583Z,42.20
2023-04-21T07:39:45.702Z,43.43
2023-04-21T07:40:50.027Z,43.12
2023-04-21T07:41:54.347Z,44.75
2023-04-21T07:42:58.697Z,46.78
2023-04-21T07:44:03.038Z,46.71
2023-04-21T07:45:07.397Z,46.94
2023-04-21T07:46:11.799Z,49.14
2023-04-21T07:47:16.725Z,50.48
2023-04-21T07:48:20.439Z,49.91
2023-04-21T07:49:24.770Z,51.47
2023-04-21T07:50:29.106Z,51.95
2023-04-21T07:51:33.442Z,51.45
2023-04-21T07:52:37.522Z,51.64
2023-04-21T07:53:41.885Z,52.42
2023-04-21T07:54:46.195Z,52.38
2023-04-21T07:55:50.783Z,51.22
2023-04-21T07:56:55.153Z,51.38
2023-04-21T07:57:59.221Z,51.12
2023-04-21T07:59:03.562Z,51.71
2023-04-21T08:00:07.914Z,51.70
2023-04-21T08:01:13.516Z,51.25
2023-04-21T08:02:17.651Z,51.38
2023-04-21T08:03:24.461Z,50.01
2023-04-21T08:04:26.644Z,51.34
2023-04-21T08:05:34.001Z,48.76
2023-04-21T08:06:34.965Z,50.28
2023-04-21T08:07:39.306Z,51.11
2023-04-21T08:08:43.894Z,50.56
2023-04-21T08:09:48.268Z,52.14
2023-04-21T08:11:00.340Z,51.56
2023-04-21T08:11:56.961Z,52.11
2023-04-21T08:13:01.010Z,53.03
2023-04-21T08:14:05.883Z,53.80
2023-04-21T08:15:09.968Z,53.36
2023-04-21T08:16:14.478Z,52.20
2023-04-21T08:17:18.390Z,51.91
2023-04-21T08:18:22.877Z,51.22
2023-04-21T08:19:27.354Z,51.64
2023-04-21T08:20:31.660Z,50.50
2023-04-21T08:21:36.016Z,52.01
2023-04-21T08:22:40.406Z,51.84
2023-04-21T08:23:44.720Z,52.94
2023-04-21T08:24:48.775Z,51.55
2023-04-21T08:25:53.404Z,52.08
2023-04-21T08:26:57.443Z,50.78
2023-04-21T08:28:02.046Z,48.78
2023-04-21T08:29:06.112Z,49.54
2023-04-21T08:30:10.709Z,49.61
2023-04-21T08:31:16.343Z,49.48
2023-04-21T08:32:20.408Z,48.23
2023-04-21T08:33:24.776Z,48.80
2023-04-21T08:34:29.100Z,47.71
2023-04-21T08:35:33.224Z,48.51
2023-04-21T08:36:37.830Z,48.68
2023-04-21T08:37:42.138Z,49.07
2023-04-21T08:38:46.484Z,49.43
2023-04-21T08:39:50.556Z,49.94
2023-04-21T08:40:55.463Z,49.92
2023-04-21T08:41:59.527Z,50.41
2023-04-21T08:43:03.887Z,51.21
2023-04-21T08:44:07.950Z,51.76
2023-04-21T08:45:12.572Z,52.40
2023-04-21T08:46:16.956Z,52.92
2023-04-21T08:47:20.993Z,51.92
2023-04-21T08:48:25.334Z,51.82
2023-04-21T08:49:29.923Z,50.52
2023-04-21T08:50:34.299Z,49.37
2023-04-21T08:51:38.337Z,49.14
2023-04-21T08:52:42.670Z,50.87
2023-04-21T08:53:47.270Z,50.18
2023-04-21T08:54:51.359Z,50.11
2023-04-21T08:56:07.688Z,49.90
2023-04-21T08:57:11.961Z,50.61
2023-04-21T08:58:04.381Z,51.06
2023-04-21T08:59:08.985Z,50.96
2023-04-21T09:00:13.330Z,51.12
2023-04-21T09:01:18.822Z,52.03
2023-04-21T09:02:23.151Z,52.22
2023-04-21T09:03:27.504Z,52.32
2023-04-21T09:04:31.894Z,51.91
2023-04-21T09:05:38.564Z,52.73
2023-04-21T09:06:40.723Z,53.38
2023-04-21T09:07:44.990Z,52.73
2023-04-21T09:08:49.078Z,52.59
2023-04-21T09:09:53.431Z,54.08
2023-04-21T09:10:57.494Z,52.89
2023-04-21T09:12:02.125Z,52.97
2023-04-21T09:13:06.457Z,52.58
2023-04-21T09:14:10.526Z,51.67
2023-04-21T09:15:14.883Z,51.75
2023-04-21T09:16:19.526Z,52.00
2023-04-21T09:17:23.850Z,52.07
2023-04-21T09:18:27.943Z,52.29
2023-04-21T09:19:32.274Z,51.00
2023-04-21T09:20:36.691Z,47.96
2023-04-21T09:21:40.962Z,48.68
2023-04-21T09:22:45.361Z,46.99
2023-04-21T09:23:49.668Z,46.35
2023-04-21T09:24:54.559Z,47.22
2023-04-21T09:25:58.877Z,45.30
2023-04-21T09:27:02.702Z,46.42
2023-04-21T09:28:07.325Z,46.51
2023-04-21T09:29:11.409Z,47.42
2023-04-21T09:30:16.020Z,45.97
2023-04-21T09:31:21.652Z,46.98
2023-04-21T09:32:25.450Z,45.85
2023-04-21T09:33:34.537Z,46.86
2023-04-21T09:34:34.630Z,46.73
2023-04-21T09:35:38.705Z,45.16
2023-04-21T09:36:43.026Z,47.47
2023-04-21T09:37:47.380Z,47.06
2023-04-21T09:38:58.846Z,48.73
2023-04-21T09:40:04.774Z,48.21
2023-04-21T09:41:00.147Z,48.16
2023-04-21T09:42:04.756Z,48.71
2023-04-21T09:43:09.111Z,47.57
2023-04-21T09:44:13.661Z,48.91
2023-04-21T09:46:21.852Z,47.93
2023-04-21T09:47:26.222Z,48.75
2023-04-21T09:48:30.770Z,49.62
2023-04-21T09:49:35.116Z,49.46
2023-04-21T09:51:22.107Z,49.72
2023-04-21T09:52:48.381Z,48.19
2023-04-21T09:53:52.463Z,47.72
2023-04-21T09:54:56.561Z,47.61
2023-04-21T09:56:00.931Z,47.27
2023-04-21T09:57:05.534Z,46.71
2023-04-21T09:58:09.600Z,47.22
2023-04-21T09:59:14.216Z,47.56
2023-04-21T10:00:18.537Z,46.68
2023-04-21T10:01:24.175Z,47.81
2023-04-21T10:02:28.171Z,47.02
2023-04-21T10:03:32.579Z,47.79
2023-04-21T10:04:40.132Z,47.42
2023-04-21T10:05:41.787Z,47.50
2023-04-21T10:06:43.457Z,49.09
2023-04-21T10:07:47.538Z,49.36
2023-04-21T10:08:52.137Z,48.04
2023-04-21T10:09:56.210Z,48.72
2023-04-21T10:11:00.805Z,47.56
2023-04-21T10:12:06.917Z,46.27
2023-04-21T10:13:09.227Z,46.82
2023-04-21T10:14:13.824Z,49.20
2023-04-21T10:15:18.317Z,47.92
2023-04-21T10:16:22.323Z,48.65
2023-04-21T10:17:27.045Z,47.33
2023-04-21T10:18:30.989Z,48.68
2023-04-21T10:19:35.611Z,46.45
2023-04-21T10:20:40.209Z,45.92
2023-04-21T10:21:44.045Z,46.58
2023-04-21T10:22:48.624Z,47.76
2023-04-21T10:23:52.969Z,46.95
2023-04-21T10:24:57.317Z,47.77
2023-04-21T10:26:01.381Z,48.48
2023-04-21T10:27:05.767Z,48.47
2023-04-21T10:28:10.342Z,46.50
2023-04-21T10:29:14.681Z,46.99
2023-04-21T10:30:19.030Z,46.95
2023-04-21T10:31:24.420Z,48.49
2023-04-21T10:32:28.485Z,49.57
2023-04-21T10:33:33.070Z,49.15
2023-04-21T10:34:37.142Z,48.75
2023-04-21T10:35:41.763Z,48.94
2023-04-21T10:36:46.094Z,46.41
2023-04-21T10:37:50.686Z,47.91
2023-04-21T10:38:55.043Z,47.68
2023-04-21T10:39:59.125Z,49.02
2023-04-21T10:41:03.447Z,49.19
2023-04-21T10:42:07.813Z,47.50
2023-04-21T10:43:12.119Z,47.78
2023-04-21T10:44:16.463Z,49.08
2023-04-21T10:45:20.548Z,49.77
2023-04-21T10:46:25.639Z,48.63
2023-04-21T10:47:29.510Z,48.54
2023-04-21T10:48:33.572Z,49.87
2023-04-21T10:49:38.175Z,50.22
2023-04-21T10:50:42.500Z,51.20
2023-04-21T10:51:46.843Z,51.31
2023-04-21T10:52:50.926Z,51.66
2023-04-21T10:53:55.293Z,51.68
2023-04-21T10:54:59.896Z,51.17
2023-04-21T10:56:04.248Z,50.57
2023-04-21T10:57:08.557Z,50.02
2023-04-21T10:58:12.656Z,50.76
2023-04-21T10:59:17.283Z,49.88
2023-04-21T11:00:21.624Z,49.75
2023-04-21T11:01:27.011Z,49.21
2023-04-21T11:02:31.447Z,48.71
2023-04-21T11:03:36.157Z,47.99
2023-04-21T11:04:40.116Z,48.70
2023-04-21T11:05:44.074Z,48.72
2023-04-21T11:06:48.673Z,48.49
2023-04-21T11:07:53.016Z,48.70
2023-04-21T11:08:57.114Z,47.98
2023-04-21T11:10:01.711Z,48.77
2023-04-21T11:11:06.035Z,49.22
2023-04-21T11:12:10.119Z,49.40
2023-04-21T11:13:14.984Z,49.70
2023-04-21T11:14:19.363Z,48.48
2023-04-21T11:15:23.154Z,49.44
2023-04-21T11:16:27.794Z,49.62
2023-04-21T11:17:32.127Z,48.13
2023-04-21T11:18:36.213Z,49.72
2023-04-21T11:19:40.772Z,50.85
2023-04-21T11:20:45.084Z,51.04
2023-04-21T11:21:49.174Z,51.61
2023-04-21T11:22:54.060Z,52.03
2023-04-21T11:23:57.882Z,51.82
2023-04-21T11:25:02.231Z,52.47
2023-04-21T11:26:06.834Z,52.09
2023-04-21T11:27:11.147Z,51.61
2023-04-21T11:28:15.512Z,51.94
2023-04-21T11:29:19.834Z,50.37
2023-04-21T11:30:24.213Z,50.30
2023-04-21T11:31:30.138Z,51.41
2023-04-21T11:32:35.649Z,51.74
2023-04-21T11:33:37.984Z,52.87
2023-04-21T11:34:42.363Z,53.29
2023-04-21T11:35:46.941Z,52.34
2023-04-21T11:36:51.023Z,51.43
2023-04-21T11:37:55.395Z,51.07
2023-04-21T11:38:59.726Z,51.09
2023-04-21T11:40:04.359Z,50.66
2023-04-21T11:41:08.703Z,49.91
2023-04-21T11:42:12.785Z,50.95
2023-04-21T11:43:17.373Z,51.49
2023-04-21T11:44:21.454Z,51.87
2023-04-21T11:45:25.810Z,50.55
2023-04-21T11:46:30.465Z,50.76
2023-04-21T11:47:34.513Z,51.62
2023-04-21T11:48:39.550Z,51.20
2023-04-21T11:49:43.433Z,51.74
2023-04-21T11:50:47.782Z,51.25
2023-04-21T11:51:52.106Z,52.02
2023-04-21T11:52:56.460Z,50.80
2023-04-21T11:54:00.824Z,50.83
2023-04-21T11:55:05.116Z,49.30
2023-04-21T11:56:09.462Z,50.21
2023-04-21T11:57:13.564Z,48.91
2023-04-21T11:58:18.407Z,48.23
2023-04-21T11:59:24.954Z,48.02
2023-04-21T12:00:26.838Z,48.51
2023-04-21T12:01:32.426Z,47.49
2023-04-21T12:02:36.388Z,46.33
2023-04-21T12:03:41.019Z,44.90
2023-04-21T12:05:59.515Z,46.80
2023-04-21T12:06:58.234Z,47.14
2023-04-21T12:08:02.557Z,47.14
2023-04-21T12:09:06.906Z,47.64
2023-04-21T12:10:11.221Z,48.16
2023-04-21T12:11:15.597Z,45.31
2023-04-21T12:12:19.938Z,46.69
2023-04-21T12:13:24.011Z,47.57
2023-04-21T12:14:28.349Z,46.32
2023-04-21T12:15:32.931Z,46.67
2023-04-21T12:16:37.049Z,45.90
2023-04-21T12:17:41.670Z,45.57
2023-04-21T12:18:46.197Z,45.54
2023-04-21T12:19:50.576Z,47.24
2023-04-21T12:20:54.640Z,45.68
2023-04-21T12:21:59.026Z,45.60
2023-04-21T12:23:03.059Z,45.38
2023-04-21T12:24:07.636Z,46.61
2023-04-21T12:25:12.329Z,46.81
2023-04-21T12:26:16.445Z,48.25
2023-04-21T12:27:20.747Z,48.14
2023-04-21T12:28:29.470Z,48.07
2023-04-21T12:29:29.381Z,48.82
2023-04-21T12:30:37.059Z,48.42
2023-04-21T12:31:37.330Z,48.50
2023-04-21T12:32:42.728Z,49.08
2023-04-21T12:33:47.103Z,50.06
2023-04-21T12:34:51.081Z,50.30
2023-04-21T12:35:51.471Z,49.33
2023-04-21T12:36:55.565Z,48.07
2023-04-21T12:38:02.904Z,49.00
2023-04-21T12:39:07.257Z,48.05
2023-04-21T12:40:05.866Z,48.89
2023-04-21T12:41:10.493Z,49.07
2023-04-21T12:42:23.830Z,47.35
2023-04-21T12:43:18.014Z,48.21
2023-04-21T12:44:22.353Z,47.58
2023-04-21T12:45:26.473Z,47.73
2023-04-21T12:46:30.812Z,46.91
2023-04-21T12:47:35.411Z,47.08
2023-04-21T12:48:39.477Z,47.07
2023-04-21T12:49:44.037Z,47.25
2023-04-21T12:50:48.607Z,47.89
2023-04-21T12:51:52.954Z,47.89
2023-04-21T12:52:56.777Z,48.22
2023-04-21T12:54:01.395Z,48.38
2023-04-21T12:55:05.447Z,49.32
2023-04-21T12:56:09.791Z,48.08
2023-04-21T12:57:14.388Z,48.03
2023-04-21T12:58:18.738Z,48.88
2023-04-21T12:59:23.084Z,49.54
2023-04-21T13:00:27.413Z,51.03
2023-04-21T13:01:31.864Z,50.67
2023-04-21T13:02:36.207Z,50.04
2023-04-21T13:03:40.588Z,50.04
2023-04-21T13:04:44.626Z,49.81
2023-04-21T13:05:45.770Z,49.77
2023-04-21T13:06:48.986Z,50.44
2023-04-21T13:07:53.339Z,51.04
2023-04-21T13:08:57.680Z,50.54
2023-04-21T13:10:02.039Z,50.69
2023-04-21T13:11:06.700Z,50.86
2023-04-21T13:12:11.179Z,51.41
2023-04-21T13:13:15.018Z,52.22
2023-04-21T13:14:19.345Z,52.06
2023-04-21T13:15:23.676Z,52.92
2023-04-21T13:16:30.212Z,52.54
2023-04-21T13:17:32.363Z,52.11
2023-04-21T13:18:36.695Z,51.92
2023-04-21T13:19:41.555Z,52.77
2023-04-21T13:20:45.635Z,52.05
2023-04-21T13:21:52.709Z,52.14
2023-04-21T13:22:54.290Z,52.44
2023-04-21T13:23:58.611Z,52.60
2023-04-21T13:25:02.957Z,52.13
2023-04-21T13:26:07.047Z,51.74
2023-04-21T13:27:11.357Z,52.10
2023-04-21T13:28:15.692Z,52.02
2023-04-21T13:29:20.272Z,51.86
2023-04-21T13:30:24.898Z,51.61
2023-04-21T13:31:28.727Z,51.01
2023-04-21T13:32:33.315Z,51.26
2023-04-21T13:33:37.617Z,52.22
2023-04-21T13:34:41.696Z,51.78
2023-04-21T13:35:41.810Z,51.91
2023-04-21T13:36:46.128Z,52.33
2023-04-21T13:37:50.728Z,52.60
2023-04-21T13:38:54.811Z,52.25
2023-04-21T13:39:59.393Z,52.10